sensor_id;sensor_type;location;lat;lon;timestamp;temperature;humidity
997;DHT22;487;50.126;8.698;2024-03-08T00:00:38;6.50;1.00
997;DHT22;487;50.126;8.698;2024-03-08T00:03:07;6.50;1.00
997;DHT22;487;50.126;8.698;2024-03-08T00:05:37;6.50;1.00
997;DHT22;487;50.126;8.698;2024-03-08T00:08:06;6.50;1.00
997;DHT22;487;50.126;8.698;2024-03-08T00:10:37;6.40;1.00
997;DHT22;487;50.126;8.698;2024-03-08T00:13:06;6.40;1.00
997;DHT22;487;50.126;8.698;2024-03-08T00:15:35;6.40;1.00
997;DHT22;487;50.126;8.698;2024-03-08T00:18:03;6.30;1.00
997;DHT22;487;50.126;8.698;2024-03-08T00:20:31;6.30;1.00
997;DHT22;487;50.126;8.698;2024-03-08T00:23:00;6.30;1.00
997;DHT22;487;50.126;8.698;2024-03-08T00:25:27;6.20;1.00
997;DHT22;487;50.126;8.698;2024-03-08T00:27:55;6.20;1.00
997;DHT22;487;50.126;8.698;2024-03-08T00:32:53;6.10;1.00
997;DHT22;487;50.126;8.698;2024-03-08T00:35:21;6.10;1.00
997;DHT22;487;50.126;8.698;2024-03-08T00:37:49;6.10;1.00
997;DHT22;487;50.126;8.698;2024-03-08T00:40:17;6.00;1.00
997;DHT22;487;50.126;8.698;2024-03-08T00:42:45;6.50;1.00
997;DHT22;487;50.126;8.698;2024-03-08T00:45:13;5.90;1.00
997;DHT22;487;50.126;8.698;2024-03-08T00:47:41;5.90;1.00
997;DHT22;487;50.126;8.698;2024-03-08T00:50:12;5.90;1.00
997;DHT22;487;50.126;8.698;2024-03-08T00:52:40;5.90;1.00
997;DHT22;487;50.126;8.698;2024-03-08T00:55:08;5.80;1.00
997;DHT22;487;50.126;8.698;2024-03-08T00:57:37;5.80;1.00
997;DHT22;487;50.126;8.698;2024-03-08T01:00:08;5.50;1.00
997;DHT22;487;50.126;8.698;2024-03-08T01:02:39;5.70;1.00
997;DHT22;487;50.126;8.698;2024-03-08T01:05:07;5.70;1.00
997;DHT22;487;50.126;8.698;2024-03-08T01:07:37;5.60;1.00
997;DHT22;487;50.126;8.698;2024-03-08T01:10:06;5.70;1.00
997;DHT22;487;50.126;8.698;2024-03-08T01:12:37;5.60;1.00
997;DHT22;487;50.126;8.698;2024-03-08T01:15:05;5.60;1.00
997;DHT22;487;50.126;8.698;2024-03-08T01:17:34;5.60;1.00
997;DHT22;487;50.126;8.698;2024-03-08T01:20:02;5.50;1.00
997;DHT22;487;50.126;8.698;2024-03-08T01:22:30;5.50;1.00
997;DHT22;487;50.126;8.698;2024-03-08T01:27:28;5.50;1.00
997;DHT22;487;50.126;8.698;2024-03-08T01:29:56;5.40;1.00
997;DHT22;487;50.126;8.698;2024-03-08T01:32:25;5.40;1.00
997;DHT22;487;50.126;8.698;2024-03-08T01:34:52;5.40;1.00
997;DHT22;487;50.126;8.698;2024-03-08T01:37:20;5.30;1.00
997;DHT22;487;50.126;8.698;2024-03-08T01:39:48;5.40;1.00
997;DHT22;487;50.126;8.698;2024-03-08T01:42:17;5.40;1.00
997;DHT22;487;50.126;8.698;2024-03-08T01:44:45;5.30;1.80
997;DHT22;487;50.126;8.698;2024-03-08T01:47:14;5.40;1.00
997;DHT22;487;50.126;8.698;2024-03-08T01:49:42;5.40;1.00
997;DHT22;487;50.126;8.698;2024-03-08T01:52:09;5.40;1.00
997;DHT22;487;50.126;8.698;2024-03-08T01:54:38;5.40;1.50
997;DHT22;487;50.126;8.698;2024-03-08T01:57:07;5.20;1.00
997;DHT22;487;50.126;8.698;2024-03-08T01:59:37;5.30;1.00
997;DHT22;487;50.126;8.698;2024-03-08T02:02:06;5.30;1.00
997;DHT22;487;50.126;8.698;2024-03-08T02:04:35;5.10;1.00
997;DHT22;487;50.126;8.698;2024-03-08T02:07:05;5.20;1.00
997;DHT22;487;50.126;8.698;2024-03-08T02:09:37;5.10;1.00
997;DHT22;487;50.126;8.698;2024-03-08T02:12:05;5.10;1.00
997;DHT22;487;50.126;8.698;2024-03-08T02:14:33;5.10;1.00
997;DHT22;487;50.126;8.698;2024-03-08T02:17:02;5.10;1.00
997;DHT22;487;50.126;8.698;2024-03-08T02:19:31;5.10;1.00
997;DHT22;487;50.126;8.698;2024-03-08T02:22:01;5.00;1.00
997;DHT22;487;50.126;8.698;2024-03-08T02:24:31;5.00;1.00
997;DHT22;487;50.126;8.698;2024-03-08T02:27:00;5.00;1.00
997;DHT22;487;50.126;8.698;2024-03-08T02:29:28;5.00;1.00
997;DHT22;487;50.126;8.698;2024-03-08T02:31:56;5.00;1.00
997;DHT22;487;50.126;8.698;2024-03-08T02:34:24;5.00;3.90
997;DHT22;487;50.126;8.698;2024-03-08T02:36:52;5.00;1.00
997;DHT22;487;50.126;8.698;2024-03-08T02:39:21;5.00;1.00
997;DHT22;487;50.126;8.698;2024-03-08T02:41:49;5.00;1.00
997;DHT22;487;50.126;8.698;2024-03-08T02:44:17;4.90;1.00
997;DHT22;487;50.126;8.698;2024-03-08T02:46:48;4.90;1.00
997;DHT22;487;50.126;8.698;2024-03-08T02:49:17;4.90;5.10
997;DHT22;487;50.126;8.698;2024-03-08T02:51:45;4.80;5.10
997;DHT22;487;50.126;8.698;2024-03-08T02:54:12;4.80;5.10
997;DHT22;487;50.126;8.698;2024-03-08T02:56:42;4.80;1.00
997;DHT22;487;50.126;8.698;2024-03-08T02:59:10;4.70;1.00
997;DHT22;487;50.126;8.698;2024-03-08T03:01:37;4.80;1.00
997;DHT22;487;50.126;8.698;2024-03-08T03:04:05;4.80;1.00
997;DHT22;487;50.126;8.698;2024-03-08T03:06:33;4.80;1.00
997;DHT22;487;50.126;8.698;2024-03-08T03:09:02;4.80;1.00
997;DHT22;487;50.126;8.698;2024-03-08T03:11:32;4.70;1.00
997;DHT22;487;50.126;8.698;2024-03-08T03:14:02;4.70;1.00
997;DHT22;487;50.126;8.698;2024-03-08T03:16:30;4.70;1.00
997;DHT22;487;50.126;8.698;2024-03-08T03:18:58;4.70;1.00
997;DHT22;487;50.126;8.698;2024-03-08T03:21:28;4.70;1.10
997;DHT22;487;50.126;8.698;2024-03-08T03:23:58;4.70;1.40
997;DHT22;487;50.126;8.698;2024-03-08T03:26:26;4.70;1.40
997;DHT22;487;50.126;8.698;2024-03-08T03:31:25;4.60;2.00
997;DHT22;487;50.126;8.698;2024-03-08T03:33:53;4.60;2.30
997;DHT22;487;50.126;8.698;2024-03-08T03:36:21;4.50;2.40
997;DHT22;487;50.126;8.698;2024-03-08T03:38:48;4.50;2.70
997;DHT22;487;50.126;8.698;2024-03-08T03:41:18;4.50;3.40
997;DHT22;487;50.126;8.698;2024-03-08T03:43:46;4.50;3.40
997;DHT22;487;50.126;8.698;2024-03-08T03:46:16;4.50;4.10
997;DHT22;487;50.126;8.698;2024-03-08T03:48:45;4.40;4.10
997;DHT22;487;50.126;8.698;2024-03-08T03:51:13;4.40;4.20
997;DHT22;487;50.126;8.698;2024-03-08T03:56:10;4.30;4.70
997;DHT22;487;50.126;8.698;2024-03-08T03:58:38;4.30;4.80
997;DHT22;487;50.126;8.698;2024-03-08T04:01:06;4.40;6.00
997;DHT22;487;50.126;8.698;2024-03-08T04:03:34;4.40;5.80
997;DHT22;487;50.126;8.698;2024-03-08T04:06:04;4.30;6.10
997;DHT22;487;50.126;8.698;2024-03-08T04:08:32;4.30;6.10
997;DHT22;487;50.126;8.698;2024-03-08T04:11:01;4.30;6.40
997;DHT22;487;50.126;8.698;2024-03-08T04:13:29;4.30;6.70
997;DHT22;487;50.126;8.698;2024-03-08T04:15:57;4.30;7.20
997;DHT22;487;50.126;8.698;2024-03-08T04:18:24;4.30;7.20
997;DHT22;487;50.126;8.698;2024-03-08T04:20:52;4.30;15.50
997;DHT22;487;50.126;8.698;2024-03-08T04:23:22;4.40;7.90
997;DHT22;487;50.126;8.698;2024-03-08T04:25:49;4.30;7.80
997;DHT22;487;50.126;8.698;2024-03-08T04:28:17;4.40;8.00
997;DHT22;487;50.126;8.698;2024-03-08T04:30:45;4.30;7.50
997;DHT22;487;50.126;8.698;2024-03-08T04:33:13;4.30;7.70
997;DHT22;487;50.126;8.698;2024-03-08T04:40:43;4.20;9.10
997;DHT22;487;50.126;8.698;2024-03-08T04:43:11;4.20;9.00
997;DHT22;487;50.126;8.698;2024-03-08T04:45:39;4.20;9.20
997;DHT22;487;50.126;8.698;2024-03-08T04:48:09;4.30;9.50
997;DHT22;487;50.126;8.698;2024-03-08T04:50:38;4.20;9.40
997;DHT22;487;50.126;8.698;2024-03-08T04:53:06;4.20;9.60
997;DHT22;487;50.126;8.698;2024-03-08T04:55:35;4.20;9.50
997;DHT22;487;50.126;8.698;2024-03-08T04:58:05;4.20;9.30
997;DHT22;487;50.126;8.698;2024-03-08T05:00:33;4.20;9.20
997;DHT22;487;50.126;8.698;2024-03-08T05:03:02;4.20;9.50
997;DHT22;487;50.126;8.698;2024-03-08T05:05:31;4.20;9.60
997;DHT22;487;50.126;8.698;2024-03-08T05:08:00;4.20;9.90
997;DHT22;487;50.126;8.698;2024-03-08T05:10:29;4.20;10.70
997;DHT22;487;50.126;8.698;2024-03-08T05:12:57;4.20;10.00
997;DHT22;487;50.126;8.698;2024-03-08T05:15:26;4.10;10.70
997;DHT22;487;50.126;8.698;2024-03-08T05:17:54;4.10;10.40
997;DHT22;487;50.126;8.698;2024-03-08T05:20:22;4.10;10.70
997;DHT22;487;50.126;8.698;2024-03-08T05:22:51;4.00;10.90
997;DHT22;487;50.126;8.698;2024-03-08T05:25:19;4.00;11.10
997;DHT22;487;50.126;8.698;2024-03-08T05:27:47;4.00;11.50
997;DHT22;487;50.126;8.698;2024-03-08T05:30:15;4.00;11.40
997;DHT22;487;50.126;8.698;2024-03-08T05:32:44;4.00;11.60
997;DHT22;487;50.126;8.698;2024-03-08T05:35:12;4.00;12.20
997;DHT22;487;50.126;8.698;2024-03-08T05:37:42;3.90;11.50
997;DHT22;487;50.126;8.698;2024-03-08T05:40:11;3.90;11.90
997;DHT22;487;50.126;8.698;2024-03-08T05:42:43;4.00;12.90
997;DHT22;487;50.126;8.698;2024-03-08T05:45:11;3.90;12.40
997;DHT22;487;50.126;8.698;2024-03-08T05:47:41;4.00;13.00
997;DHT22;487;50.126;8.698;2024-03-08T05:50:10;3.90;12.80
997;DHT22;487;50.126;8.698;2024-03-08T05:52:38;3.90;12.80
997;DHT22;487;50.126;8.698;2024-03-08T05:55:07;3.90;13.20
997;DHT22;487;50.126;8.698;2024-03-08T05:57:36;3.90;13.80
997;DHT22;487;50.126;8.698;2024-03-08T06:00:07;3.90;13.40
997;DHT22;487;50.126;8.698;2024-03-08T06:02:37;3.90;14.30
997;DHT22;487;50.126;8.698;2024-03-08T06:05:10;3.90;14.60
997;DHT22;487;50.126;8.698;2024-03-08T06:07:38;3.90;15.50
997;DHT22;487;50.126;8.698;2024-03-08T06:10:08;3.90;15.90
997;DHT22;487;50.126;8.698;2024-03-08T06:12:38;4.00;15.90
997;DHT22;487;50.126;8.698;2024-03-08T06:15:08;4.00;15.70
997;DHT22;487;50.126;8.698;2024-03-08T06:17:37;4.00;15.20
997;DHT22;487;50.126;8.698;2024-03-08T06:20:06;4.00;15.40
997;DHT22;487;50.126;8.698;2024-03-08T06:22:38;4.00;15.80
997;DHT22;487;50.126;8.698;2024-03-08T06:25:08;3.90;15.90
997;DHT22;487;50.126;8.698;2024-03-08T06:27:36;4.00;16.90
997;DHT22;487;50.126;8.698;2024-03-08T06:30:05;4.00;16.60
997;DHT22;487;50.126;8.698;2024-03-08T06:32:37;4.00;16.90
997;DHT22;487;50.126;8.698;2024-03-08T06:35:06;4.00;17.10
997;DHT22;487;50.126;8.698;2024-03-08T06:37:35;4.10;17.40
997;DHT22;487;50.126;8.698;2024-03-08T06:40:05;4.00;17.40
997;DHT22;487;50.126;8.698;2024-03-08T06:42:34;4.10;17.40
997;DHT22;487;50.126;8.698;2024-03-08T06:45:03;4.10;17.40
997;DHT22;487;50.126;8.698;2024-03-08T06:50:01;4.10;17.30
997;DHT22;487;50.126;8.698;2024-03-08T06:52:29;4.10;18.10
997;DHT22;487;50.126;8.698;2024-03-08T06:54:57;4.10;17.50
997;DHT22;487;50.126;8.698;2024-03-08T06:57:26;4.20;18.10
997;DHT22;487;50.126;8.698;2024-03-08T06:59:56;4.30;18.80
997;DHT22;487;50.126;8.698;2024-03-08T07:02:24;4.30;18.10
997;DHT22;487;50.126;8.698;2024-03-08T07:04:52;4.20;18.00
997;DHT22;487;50.126;8.698;2024-03-08T07:09:49;4.40;17.40
997;DHT22;487;50.126;8.698;2024-03-08T07:12:17;4.40;17.90
997;DHT22;487;50.126;8.698;2024-03-08T07:14:46;4.40;18.10
997;DHT22;487;50.126;8.698;2024-03-08T07:17:14;4.50;17.80
997;DHT22;487;50.126;8.698;2024-03-08T07:19:43;4.50;17.00
997;DHT22;487;50.126;8.698;2024-03-08T07:22:11;4.60;16.80
997;DHT22;487;50.126;8.698;2024-03-08T07:24:40;4.60;15.80
997;DHT22;487;50.126;8.698;2024-03-08T07:27:22;4.60;14.40
997;DHT22;487;50.126;8.698;2024-03-08T07:29:51;4.60;14.80
997;DHT22;487;50.126;8.698;2024-03-08T07:32:34;4.60;15.00
997;DHT22;487;50.126;8.698;2024-03-08T07:35:02;4.60;15.40
997;DHT22;487;50.126;8.698;2024-03-08T07:37:31;4.70;15.70
997;DHT22;487;50.126;8.698;2024-03-08T07:39:59;4.70;14.60
997;DHT22;487;50.126;8.698;2024-03-08T07:42:27;4.80;14.70
997;DHT22;487;50.126;8.698;2024-03-08T07:44:57;4.80;14.60
997;DHT22;487;50.126;8.698;2024-03-08T07:47:25;4.80;15.30
997;DHT22;487;50.126;8.698;2024-03-08T07:49:53;4.80;14.40
997;DHT22;487;50.126;8.698;2024-03-08T07:52:21;4.90;15.00
997;DHT22;487;50.126;8.698;2024-03-08T07:54:50;4.80;14.90
997;DHT22;487;50.126;8.698;2024-03-08T07:57:18;5.00;15.60
997;DHT22;487;50.126;8.698;2024-03-08T07:59:46;5.10;14.60
997;DHT22;487;50.126;8.698;2024-03-08T08:02:15;5.10;14.90
997;DHT22;487;50.126;8.698;2024-03-08T08:04:43;5.20;13.80
997;DHT22;487;50.126;8.698;2024-03-08T08:07:11;5.20;14.80
997;DHT22;487;50.126;8.698;2024-03-08T08:09:41;5.30;14.10
997;DHT22;487;50.126;8.698;2024-03-08T08:12:09;5.30;15.00
997;DHT22;487;50.126;8.698;2024-03-08T08:14:38;5.40;15.10
997;DHT22;487;50.126;8.698;2024-03-08T08:17:07;5.50;14.00
997;DHT22;487;50.126;8.698;2024-03-08T08:19:37;5.50;13.00
997;DHT22;487;50.126;8.698;2024-03-08T08:22:05;5.60;13.10
997;DHT22;487;50.126;8.698;2024-03-08T08:24:35;5.60;12.10
997;DHT22;487;50.126;8.698;2024-03-08T08:27:04;5.70;12.60
997;DHT22;487;50.126;8.698;2024-03-08T08:29:32;5.70;12.60
997;DHT22;487;50.126;8.698;2024-03-08T08:31:59;5.70;12.00
997;DHT22;487;50.126;8.698;2024-03-08T08:34:29;5.80;12.00
997;DHT22;487;50.126;8.698;2024-03-08T08:36:59;5.80;12.20
997;DHT22;487;50.126;8.698;2024-03-08T08:39:28;5.80;12.10
997;DHT22;487;50.126;8.698;2024-03-08T08:41:56;5.90;12.50
997;DHT22;487;50.126;8.698;2024-03-08T08:44:24;6.00;11.90
997;DHT22;487;50.126;8.698;2024-03-08T08:49:28;6.00;10.00
997;DHT22;487;50.126;8.698;2024-03-08T08:51:58;6.10;10.40
997;DHT22;487;50.126;8.698;2024-03-08T08:54:37;6.10;9.90
997;DHT22;487;50.126;8.698;2024-03-08T08:57:05;6.20;10.40
997;DHT22;487;50.126;8.698;2024-03-08T08:59:34;6.20;10.40
997;DHT22;487;50.126;8.698;2024-03-08T09:02:02;6.30;10.30
997;DHT22;487;50.126;8.698;2024-03-08T09:04:30;6.40;8.50
997;DHT22;487;50.126;8.698;2024-03-08T09:07:00;6.40;8.50
997;DHT22;487;50.126;8.698;2024-03-08T09:09:28;6.50;9.50
997;DHT22;487;50.126;8.698;2024-03-08T09:14:24;6.60;8.10
997;DHT22;487;50.126;8.698;2024-03-08T09:16:52;6.70;7.40
997;DHT22;487;50.126;8.698;2024-03-08T09:19:20;6.80;7.00
997;DHT22;487;50.126;8.698;2024-03-08T09:21:50;6.80;7.00
997;DHT22;487;50.126;8.698;2024-03-08T09:24:19;6.90;6.30
997;DHT22;487;50.126;8.698;2024-03-08T09:26:47;7.00;6.10
997;DHT22;487;50.126;8.698;2024-03-08T09:29:15;7.10;3.00
997;DHT22;487;50.126;8.698;2024-03-08T09:31:42;7.10;2.10
997;DHT22;487;50.126;8.698;2024-03-08T09:36:51;7.20;1.90
997;DHT22;487;50.126;8.698;2024-03-08T09:39:20;7.30;1.00
997;DHT22;487;50.126;8.698;2024-03-08T09:41:52;7.40;1.20
997;DHT22;487;50.126;8.698;2024-03-08T09:44:22;7.50;1.00
997;DHT22;487;50.126;8.698;2024-03-08T09:46:54;7.60;1.00
997;DHT22;487;50.126;8.698;2024-03-08T09:49:24;7.70;1.00
997;DHT22;487;50.126;8.698;2024-03-08T09:51:52;7.70;1.00
997;DHT22;487;50.126;8.698;2024-03-08T09:54:21;7.80;1.00
997;DHT22;487;50.126;8.698;2024-03-08T09:56:52;7.80;1.00
997;DHT22;487;50.126;8.698;2024-03-08T09:59:20;7.90;1.00
997;DHT22;487;50.126;8.698;2024-03-08T10:02:13;8.00;1.00
997;DHT22;487;50.126;8.698;2024-03-08T10:04:42;8.00;1.00
997;DHT22;487;50.126;8.698;2024-03-08T10:07:10;8.00;1.00
997;DHT22;487;50.126;8.698;2024-03-08T10:09:40;8.10;1.00
997;DHT22;487;50.126;8.698;2024-03-08T10:12:15;8.10;1.00
997;DHT22;487;50.126;8.698;2024-03-08T10:14:43;8.20;1.00
997;DHT22;487;50.126;8.698;2024-03-08T10:17:12;8.30;1.00
997;DHT22;487;50.126;8.698;2024-03-08T10:19:49;8.30;1.00
997;DHT22;487;50.126;8.698;2024-03-08T10:22:18;8.30;1.00
997;DHT22;487;50.126;8.698;2024-03-08T10:24:47;8.30;1.00
997;DHT22;487;50.126;8.698;2024-03-08T10:27:16;8.40;1.00
997;DHT22;487;50.126;8.698;2024-03-08T10:29:48;8.50;1.00
997;DHT22;487;50.126;8.698;2024-03-08T10:32:18;8.50;1.00
997;DHT22;487;50.126;8.698;2024-03-08T10:34:47;8.70;1.00
997;DHT22;487;50.126;8.698;2024-03-08T10:37:21;8.80;1.00
997;DHT22;487;50.126;8.698;2024-03-08T10:40:01;8.90;1.00
997;DHT22;487;50.126;8.698;2024-03-08T10:42:40;9.00;1.00
997;DHT22;487;50.126;8.698;2024-03-08T10:45:15;9.00;1.00
997;DHT22;487;50.126;8.698;2024-03-08T10:47:49;9.00;1.00
997;DHT22;487;50.126;8.698;2024-03-08T10:50:22;9.10;1.00
997;DHT22;487;50.126;8.698;2024-03-08T10:55:28;9.00;1.00
997;DHT22;487;50.126;8.698;2024-03-08T10:57:56;9.10;1.00
997;DHT22;487;50.126;8.698;2024-03-08T11:00:23;9.10;1.00
997;DHT22;487;50.126;8.698;2024-03-08T11:02:54;9.10;1.00
997;DHT22;487;50.126;8.698;2024-03-08T11:05:37;9.20;1.00
997;DHT22;487;50.126;8.698;2024-03-08T11:08:17;9.20;1.00
997;DHT22;487;50.126;8.698;2024-03-08T11:10:51;9.30;1.00
997;DHT22;487;50.126;8.698;2024-03-08T11:13:33;9.30;1.00
997;DHT22;487;50.126;8.698;2024-03-08T11:16:01;9.40;1.00
997;DHT22;487;50.126;8.698;2024-03-08T11:18:33;9.40;1.00
997;DHT22;487;50.126;8.698;2024-03-08T11:21:02;9.40;1.00
997;DHT22;487;50.126;8.698;2024-03-08T11:23:33;9.40;1.00
997;DHT22;487;50.126;8.698;2024-03-08T11:26:03;9.50;1.00
997;DHT22;487;50.126;8.698;2024-03-08T11:28:34;9.60;1.00
997;DHT22;487;50.126;8.698;2024-03-08T11:31:24;9.60;1.00
997;DHT22;487;50.126;8.698;2024-03-08T11:33:53;9.70;1.00
997;DHT22;487;50.126;8.698;2024-03-08T11:36:23;9.80;1.00
997;DHT22;487;50.126;8.698;2024-03-08T11:38:52;9.80;1.00
997;DHT22;487;50.126;8.698;2024-03-08T11:41:24;9.90;1.00
997;DHT22;487;50.126;8.698;2024-03-08T11:44:02;9.90;1.00
997;DHT22;487;50.126;8.698;2024-03-08T11:46:33;10.00;1.00
997;DHT22;487;50.126;8.698;2024-03-08T11:49:01;10.00;1.00
997;DHT22;487;50.126;8.698;2024-03-08T11:51:30;10.10;1.00
997;DHT22;487;50.126;8.698;2024-03-08T11:53:59;10.20;1.00
997;DHT22;487;50.126;8.698;2024-03-08T11:56:28;10.30;1.00
997;DHT22;487;50.126;8.698;2024-03-08T11:58:56;10.40;1.00
997;DHT22;487;50.126;8.698;2024-03-08T12:01:25;10.40;1.00
997;DHT22;487;50.126;8.698;2024-03-08T12:03:55;10.40;1.00
997;DHT22;487;50.126;8.698;2024-03-08T12:06:25;10.40;1.00
997;DHT22;487;50.126;8.698;2024-03-08T12:08:53;10.40;1.00
997;DHT22;487;50.126;8.698;2024-03-08T12:11:22;10.40;1.00
997;DHT22;487;50.126;8.698;2024-03-08T12:13:53;10.50;1.00
997;DHT22;487;50.126;8.698;2024-03-08T12:16:21;10.40;1.00
997;DHT22;487;50.126;8.698;2024-03-08T12:18:51;10.40;1.00
997;DHT22;487;50.126;8.698;2024-03-08T12:21:20;10.50;1.00
997;DHT22;487;50.126;8.698;2024-03-08T12:24:02;10.50;1.00
997;DHT22;487;50.126;8.698;2024-03-08T12:26:30;10.60;1.00
997;DHT22;487;50.126;8.698;2024-03-08T12:31:54;10.60;1.00
997;DHT22;487;50.126;8.698;2024-03-08T12:34:24;10.60;1.00
997;DHT22;487;50.126;8.698;2024-03-08T12:36:54;10.70;1.00
997;DHT22;487;50.126;8.698;2024-03-08T12:39:22;10.70;1.00
997;DHT22;487;50.126;8.698;2024-03-08T12:41:53;10.70;1.00
997;DHT22;487;50.126;8.698;2024-03-08T12:44:23;10.80;1.00
997;DHT22;487;50.126;8.698;2024-03-08T12:46:54;10.80;1.00
997;DHT22;487;50.126;8.698;2024-03-08T12:49:22;10.90;1.00
997;DHT22;487;50.126;8.698;2024-03-08T12:51:50;11.00;1.00
997;DHT22;487;50.126;8.698;2024-03-08T12:54:19;11.00;1.00
997;DHT22;487;50.126;8.698;2024-03-08T12:59:20;11.10;1.00
997;DHT22;487;50.126;8.698;2024-03-08T13:01:50;11.20;1.00
997;DHT22;487;50.126;8.698;2024-03-08T13:04:21;11.30;1.00
997;DHT22;487;50.126;8.698;2024-03-08T13:06:49;11.40;1.00
997;DHT22;487;50.126;8.698;2024-03-08T13:09:21;11.50;1.00
997;DHT22;487;50.126;8.698;2024-03-08T13:11:50;11.50;1.00
997;DHT22;487;50.126;8.698;2024-03-08T13:14:18;11.60;1.00
997;DHT22;487;50.126;8.698;2024-03-08T13:16:46;11.60;1.00
997;DHT22;487;50.126;8.698;2024-03-08T13:19:15;11.60;1.00
997;DHT22;487;50.126;8.698;2024-03-08T13:21:45;11.60;1.00
997;DHT22;487;50.126;8.698;2024-03-08T13:24:16;11.60;1.00
997;DHT22;487;50.126;8.698;2024-03-08T13:26:45;11.60;1.00
997;DHT22;487;50.126;8.698;2024-03-08T13:29:13;11.70;1.00
997;DHT22;487;50.126;8.698;2024-03-08T13:31:41;11.70;1.00
997;DHT22;487;50.126;8.698;2024-03-08T13:34:09;11.70;1.00
997;DHT22;487;50.126;8.698;2024-03-08T13:36:38;11.80;1.00
997;DHT22;487;50.126;8.698;2024-03-08T13:39:12;11.80;1.00
997;DHT22;487;50.126;8.698;2024-03-08T13:41:42;11.90;1.00
997;DHT22;487;50.126;8.698;2024-03-08T13:44:11;11.90;1.00
997;DHT22;487;50.126;8.698;2024-03-08T13:46:39;12.00;1.00
997;DHT22;487;50.126;8.698;2024-03-08T13:49:08;12.00;1.00
997;DHT22;487;50.126;8.698;2024-03-08T13:51:37;12.00;1.00
997;DHT22;487;50.126;8.698;2024-03-08T13:54:06;12.00;1.00
997;DHT22;487;50.126;8.698;2024-03-08T13:56:35;12.10;1.00
997;DHT22;487;50.126;8.698;2024-03-08T13:59:03;12.10;1.00
997;DHT22;487;50.126;8.698;2024-03-08T14:01:31;12.10;1.00
997;DHT22;487;50.126;8.698;2024-03-08T14:04:02;12.10;1.00
997;DHT22;487;50.126;8.698;2024-03-08T14:06:31;12.20;1.00
997;DHT22;487;50.126;8.698;2024-03-08T14:08:58;12.20;1.00
997;DHT22;487;50.126;8.698;2024-03-08T14:11:27;12.20;1.00
997;DHT22;487;50.126;8.698;2024-03-08T14:13:57;12.20;1.00
997;DHT22;487;50.126;8.698;2024-03-08T14:16:24;12.30;1.00
997;DHT22;487;50.126;8.698;2024-03-08T14:18:52;12.30;1.00
997;DHT22;487;50.126;8.698;2024-03-08T14:21:20;12.30;1.00
997;DHT22;487;50.126;8.698;2024-03-08T14:23:48;12.30;1.00
997;DHT22;487;50.126;8.698;2024-03-08T14:26:19;12.30;1.00
997;DHT22;487;50.126;8.698;2024-03-08T14:28:48;12.30;1.00
997;DHT22;487;50.126;8.698;2024-03-08T14:31:20;12.30;1.00
997;DHT22;487;50.126;8.698;2024-03-08T14:33:52;12.40;1.00
997;DHT22;487;50.126;8.698;2024-03-08T14:36:20;12.40;1.00
997;DHT22;487;50.126;8.698;2024-03-08T14:38:49;12.40;1.00
997;DHT22;487;50.126;8.698;2024-03-08T14:41:17;12.40;1.00
997;DHT22;487;50.126;8.698;2024-03-08T14:43:45;12.50;1.00
997;DHT22;487;50.126;8.698;2024-03-08T14:46:14;12.50;1.00
997;DHT22;487;50.126;8.698;2024-03-08T14:48:45;12.50;1.00
997;DHT22;487;50.126;8.698;2024-03-08T14:51:17;12.50;1.00
997;DHT22;487;50.126;8.698;2024-03-08T14:53:49;12.50;1.00
997;DHT22;487;50.126;8.698;2024-03-08T14:56:17;12.50;1.00
997;DHT22;487;50.126;8.698;2024-03-08T14:58:45;12.50;1.00
997;DHT22;487;50.126;8.698;2024-03-08T15:01:16;12.60;1.00
997;DHT22;487;50.126;8.698;2024-03-08T15:03:50;12.60;1.00
997;DHT22;487;50.126;8.698;2024-03-08T15:06:18;12.60;1.00
997;DHT22;487;50.126;8.698;2024-03-08T15:08:47;12.50;1.00
997;DHT22;487;50.126;8.698;2024-03-08T15:11:15;12.50;1.00
997;DHT22;487;50.126;8.698;2024-03-08T15:13:48;12.50;1.00
997;DHT22;487;50.126;8.698;2024-03-08T15:16:19;12.60;1.00
997;DHT22;487;50.126;8.698;2024-03-08T15:18:51;12.70;1.00
997;DHT22;487;50.126;8.698;2024-03-08T15:21:20;12.70;1.00
997;DHT22;487;50.126;8.698;2024-03-08T15:23:52;12.80;1.00
997;DHT22;487;50.126;8.698;2024-03-08T15:26:21;12.80;1.00
997;DHT22;487;50.126;8.698;2024-03-08T15:28:49;12.90;1.00
997;DHT22;487;50.126;8.698;2024-03-08T15:31:19;12.90;1.00
997;DHT22;487;50.126;8.698;2024-03-08T15:36:20;13.00;1.00
997;DHT22;487;50.126;8.698;2024-03-08T15:38:48;13.00;1.00
997;DHT22;487;50.126;8.698;2024-03-08T15:41:19;13.20;1.00
997;DHT22;487;50.126;8.698;2024-03-08T15:43:48;13.20;1.00
997;DHT22;487;50.126;8.698;2024-03-08T15:46:16;13.30;1.00
997;DHT22;487;50.126;8.698;2024-03-08T15:48:49;13.30;1.00
997;DHT22;487;50.126;8.698;2024-03-08T15:51:19;13.30;1.00
997;DHT22;487;50.126;8.698;2024-03-08T15:53:48;13.40;1.00
997;DHT22;487;50.126;8.698;2024-03-08T15:56:20;13.40;1.00
997;DHT22;487;50.126;8.698;2024-03-08T15:58:49;13.40;1.00
997;DHT22;487;50.126;8.698;2024-03-08T16:01:18;13.40;1.00
997;DHT22;487;50.126;8.698;2024-03-08T16:03:47;13.50;1.00
997;DHT22;487;50.126;8.698;2024-03-08T16:06:16;13.50;1.00
997;DHT22;487;50.126;8.698;2024-03-08T16:08:49;13.60;1.00
997;DHT22;487;50.126;8.698;2024-03-08T16:11:17;13.60;1.00
997;DHT22;487;50.126;8.698;2024-03-08T16:13:45;13.70;1.00
997;DHT22;487;50.126;8.698;2024-03-08T16:16:13;13.90;1.00
997;DHT22;487;50.126;8.698;2024-03-08T16:18:41;14.00;1.00
997;DHT22;487;50.126;8.698;2024-03-08T16:21:09;14.10;1.00
997;DHT22;487;50.126;8.698;2024-03-08T16:23:38;14.20;1.00
997;DHT22;487;50.126;8.698;2024-03-08T16:26:07;13.90;1.00
997;DHT22;487;50.126;8.698;2024-03-08T16:28:36;14.40;1.00
997;DHT22;487;50.126;8.698;2024-03-08T16:31:08;14.40;1.00
997;DHT22;487;50.126;8.698;2024-03-08T16:33:38;14.50;1.00
997;DHT22;487;50.126;8.698;2024-03-08T16:36:07;14.50;1.00
997;DHT22;487;50.126;8.698;2024-03-08T16:38:37;14.50;1.00
997;DHT22;487;50.126;8.698;2024-03-08T16:41:05;14.60;1.00
997;DHT22;487;50.126;8.698;2024-03-08T16:43:34;14.60;1.00
997;DHT22;487;50.126;8.698;2024-03-08T16:46:04;14.50;1.00
997;DHT22;487;50.126;8.698;2024-03-08T16:48:33;14.50;1.00
997;DHT22;487;50.126;8.698;2024-03-08T16:51:03;14.30;1.00
997;DHT22;487;50.126;8.698;2024-03-08T16:53:30;14.20;1.00
997;DHT22;487;50.126;8.698;2024-03-08T16:56:00;14.00;1.00
997;DHT22;487;50.126;8.698;2024-03-08T16:58:28;13.90;1.00
997;DHT22;487;50.126;8.698;2024-03-08T17:00:58;13.70;1.00
997;DHT22;487;50.126;8.698;2024-03-08T17:06:18;13.40;1.00
997;DHT22;487;50.126;8.698;2024-03-08T17:08:47;13.20;1.00
997;DHT22;487;50.126;8.698;2024-03-08T17:11:15;13.00;1.00
997;DHT22;487;50.126;8.698;2024-03-08T17:13:47;12.70;1.00
997;DHT22;487;50.126;8.698;2024-03-08T17:16:16;12.50;1.00
997;DHT22;487;50.126;8.698;2024-03-08T17:18:46;12.40;1.00
997;DHT22;487;50.126;8.698;2024-03-08T17:21:15;12.20;1.00
997;DHT22;487;50.126;8.698;2024-03-08T17:23:43;12.10;1.00
997;DHT22;487;50.126;8.698;2024-03-08T17:26:11;11.90;1.00
997;DHT22;487;50.126;8.698;2024-03-08T17:28:40;11.90;1.00
997;DHT22;487;50.126;8.698;2024-03-08T17:31:09;11.70;1.00
997;DHT22;487;50.126;8.698;2024-03-08T17:33:40;11.80;1.00
997;DHT22;487;50.126;8.698;2024-03-08T17:36:09;11.60;1.00
997;DHT22;487;50.126;8.698;2024-03-08T17:38:38;11.50;1.00
997;DHT22;487;50.126;8.698;2024-03-08T17:41:14;11.40;1.00
997;DHT22;487;50.126;8.698;2024-03-08T17:43:45;11.40;1.00
997;DHT22;487;50.126;8.698;2024-03-08T17:46:13;11.30;1.00
997;DHT22;487;50.126;8.698;2024-03-08T17:48:43;11.20;1.00
997;DHT22;487;50.126;8.698;2024-03-08T17:51:11;11.10;1.00
997;DHT22;487;50.126;8.698;2024-03-08T17:53:40;11.10;1.00